Terminal Aerodrome Forecast
Issued by NWS

Home | Current Version | Previous Version | Text Only | Print | Product List | Glossary Off
Versions: 1 2 3 4 5 6 7 8 9 10 11 12 13 14 15 16 17 18 19 20 21 22 23 24

000
FTUS43 KGRB 162300
TAFATW
TAF
KATW 162337Z 1700/1724 32013KT 6SM -SN BR SCT010 OVC017
      TEMPO 1700/1704 2SM -SN BR BKN010
     FM170500 30012KT P6SM -SN SCT018 OVC025
     FM171400 30013G19KT P6SM SCT020 BKN030
     FM171900 30010G14KT P6SM SCT030 BKN050=

USA.gov is the U.S. government's official web portal to all federal, state and local government web resources and services.